sensor_id;sensor_type;location;lat;lon;timestamp;pressure;altitude;pressure_sealevel;temperature;humidity
66486;BME280;53303;47.476;8.084;2023-06-26T00:02:16;95456.94;;;24.88;47.18
66486;BME280;53303;47.476;8.084;2023-06-26T00:04:43;95444.38;;;24.82;46.86
66486;BME280;53303;47.476;8.084;2023-06-26T00:07:11;95447.06;;;24.87;46.82
66486;BME280;53303;47.476;8.084;2023-06-26T00:09:37;95448.66;;;24.83;46.93
66486;BME280;53303;47.476;8.084;2023-06-26T00:12:02;95435.16;;;24.74;46.84
66486;BME280;53303;47.476;8.084;2023-06-26T00:14:28;95455.44;;;24.87;47.25
66486;BME280;53303;47.476;8.084;2023-06-26T00:16:53;95452.22;;;24.83;46.78
66486;BME280;53303;47.476;8.084;2023-06-26T00:19:21;95456.28;;;24.82;46.54
66486;BME280;53303;47.476;8.084;2023-06-26T00:21:46;95439.13;;;24.78;46.76
66486;BME280;53303;47.476;8.084;2023-06-26T00:24:14;95450.91;;;24.84;46.55
66486;BME280;53303;47.476;8.084;2023-06-26T00:26:41;95452.44;;;24.85;46.76
66486;BME280;53303;47.476;8.084;2023-06-26T00:29:07;95452.00;;;24.81;46.48
66486;BME280;53303;47.476;8.084;2023-06-26T00:31:35;95448.66;;;24.83;46.37
66486;BME280;53303;47.476;8.084;2023-06-26T00:34:03;95430.97;;;24.67;46.69
66486;BME280;53303;47.476;8.084;2023-06-26T00:36:33;95442.47;;;24.77;46.40
66486;BME280;53303;47.476;8.084;2023-06-26T00:39:01;95439.66;;;24.77;46.47
66486;BME280;53303;47.476;8.084;2023-06-26T00:41:31;95451.44;;;24.83;46.49
66486;BME280;53303;47.476;8.084;2023-06-26T00:43:56;95438.69;;;24.74;46.40
66486;BME280;53303;47.476;8.084;2023-06-26T00:46:22;95447.38;;;24.84;46.52
66486;BME280;53303;47.476;8.084;2023-06-26T00:48:49;95441.72;;;24.76;46.08
66486;BME280;53303;47.476;8.084;2023-06-26T00:51:15;95457.81;;;24.83;46.10
66486;BME280;53303;47.476;8.084;2023-06-26T00:53:41;95456.50;;;24.84;46.08
66486;BME280;53303;47.476;8.084;2023-06-26T00:56:07;95443.19;;;24.77;45.90
66486;BME280;53303;47.476;8.084;2023-06-26T00:58:35;95447.19;;;24.82;45.89
66486;BME280;53303;47.476;8.084;2023-06-26T01:01:01;95437.75;;;24.72;45.74
66486;BME280;53303;47.476;8.084;2023-06-26T01:03:30;95437.75;;;24.72;45.57
66486;BME280;53303;47.476;8.084;2023-06-26T01:05:59;95447.06;;;24.74;45.66
66486;BME280;53303;47.476;8.084;2023-06-26T01:08:25;95462.41;;;24.81;45.64
66486;BME280;53303;47.476;8.084;2023-06-26T01:10:54;95446.13;;;24.72;45.51
66486;BME280;53303;47.476;8.084;2023-06-26T01:13:19;95440.75;;;24.74;45.31
66486;BME280;53303;47.476;8.084;2023-06-26T01:15:46;95440.41;;;24.77;45.45
66486;BME280;53303;47.476;8.084;2023-06-26T01:18:11;95448.25;;;24.79;45.01
66486;BME280;53303;47.476;8.084;2023-06-26T01:20:40;95443.75;;;24.76;45.15
66486;BME280;53303;47.476;8.084;2023-06-26T01:26:12;95441.59;;;24.68;44.83
66486;BME280;53303;47.476;8.084;2023-06-26T01:28:41;95431.94;;;24.69;44.70
66486;BME280;53303;47.476;8.084;2023-06-26T01:31:07;95439.88;;;24.79;44.91
66486;BME280;53303;47.476;8.084;2023-06-26T01:33:36;95441.19;;;24.78;44.81
66486;BME280;53303;47.476;8.084;2023-06-26T01:36:02;95438.94;;;24.76;44.74
66486;BME280;53303;47.476;8.084;2023-06-26T01:38:28;95431.22;;;24.69;44.28
66486;BME280;53303;47.476;8.084;2023-06-26T01:40:55;95433.09;;;24.74;43.99
66486;BME280;53303;47.476;8.084;2023-06-26T01:46:06;95438.38;;;24.78;44.16
66486;BME280;53303;47.476;8.084;2023-06-26T01:48:44;95422.50;;;24.73;43.91
66486;BME280;53303;47.476;8.084;2023-06-26T01:51:13;95438.16;;;24.76;44.12
66486;BME280;53303;47.476;8.084;2023-06-26T01:53:45;95432.69;;;24.70;43.89
66486;BME280;53303;47.476;8.084;2023-06-26T01:56:18;95438.16;;;24.76;43.87
66486;BME280;53303;47.476;8.084;2023-06-26T01:58:49;95435.69;;;24.72;44.04
66486;BME280;53303;47.476;8.084;2023-06-26T02:01:17;95426.16;;;24.67;43.56
66486;BME280;53303;47.476;8.084;2023-06-26T02:03:45;95433.22;;;24.68;43.73
66486;BME280;53303;47.476;8.084;2023-06-26T02:06:11;95450.09;;;24.76;43.63
66486;BME280;53303;47.476;8.084;2023-06-26T02:08:38;95447.06;;;24.74;43.70
66486;BME280;53303;47.476;8.084;2023-06-26T02:11:08;95444.28;;;24.74;43.94
66486;BME280;53303;47.476;8.084;2023-06-26T02:13:34;95437.75;;;24.72;43.77
66486;BME280;53303;47.476;8.084;2023-06-26T02:16:04;95446.84;;;24.72;43.48
66486;BME280;53303;47.476;8.084;2023-06-26T02:18:29;95431.75;;;24.67;43.39
66486;BME280;53303;47.476;8.084;2023-06-26T02:20:59;95423.59;;;24.56;43.50
66486;BME280;53303;47.476;8.084;2023-06-26T02:23:27;95434.31;;;24.65;43.48
66486;BME280;53303;47.476;8.084;2023-06-26T02:25:53;95426.63;;;24.58;43.28
66486;BME280;53303;47.476;8.084;2023-06-26T02:28:23;95430.78;;;24.65;43.27
66486;BME280;53303;47.476;8.084;2023-06-26T02:30:48;95444.06;;;24.72;43.33
66486;BME280;53303;47.476;8.084;2023-06-26T02:33:14;95441.28;;;24.72;43.51
66486;BME280;53303;47.476;8.084;2023-06-26T02:35:39;95441.41;;;24.66;43.38
66486;BME280;53303;47.476;8.084;2023-06-26T02:38:04;95446.84;;;24.72;43.32
66486;BME280;53303;47.476;8.084;2023-06-26T02:40:30;95429.28;;;24.64;43.26
66486;BME280;53303;47.476;8.084;2023-06-26T02:42:58;95435.81;;;24.66;43.41
66486;BME280;53303;47.476;8.084;2023-06-26T02:45:26;95433.56;;;24.65;43.42
66486;BME280;53303;47.476;8.084;2023-06-26T02:47:51;95427.34;;;24.59;43.60
66486;BME280;53303;47.476;8.084;2023-06-26T02:50:19;95434.41;;;24.60;43.36
66486;BME280;53303;47.476;8.084;2023-06-26T02:52:44;95427.56;;;24.61;43.57
66486;BME280;53303;47.476;8.084;2023-06-26T02:55:09;95441.59;;;24.68;43.49
66486;BME280;53303;47.476;8.084;2023-06-26T02:57:37;95449.44;;;24.70;43.22
66486;BME280;53303;47.476;8.084;2023-06-26T03:00:03;95438.19;;;24.62;43.33
66486;BME280;53303;47.476;8.084;2023-06-26T03:02:36;95443.44;;;24.66;43.09
66486;BME280;53303;47.476;8.084;2023-06-26T03:05:04;95443.78;;;24.62;43.33
66486;BME280;53303;47.476;8.084;2023-06-26T03:07:32;95453.53;;;24.69;43.46
66486;BME280;53303;47.476;8.084;2023-06-26T03:10:03;95452.56;;;24.66;43.48
66486;BME280;53303;47.476;8.084;2023-06-26T03:12:28;95454.28;;;24.69;43.53
66486;BME280;53303;47.476;8.084;2023-06-26T03:14:56;95449.34;;;24.62;43.50
66486;BME280;53303;47.476;8.084;2023-06-26T03:17:21;95442.03;;;24.59;43.30
66486;BME280;53303;47.476;8.084;2023-06-26T03:19:47;95442.25;;;24.61;43.18
66486;BME280;53303;47.476;8.084;2023-06-26T03:22:12;95435.72;;;24.59;43.48
66486;BME280;53303;47.476;8.084;2023-06-26T03:24:40;95439.69;;;24.63;43.32
66486;BME280;53303;47.476;8.084;2023-06-26T03:27:06;95443.97;;;24.64;43.22
66486;BME280;53303;47.476;8.084;2023-06-26T03:29:32;95443.78;;;24.62;43.49
66486;BME280;53303;47.476;8.084;2023-06-26T03:31:57;95450.09;;;24.63;43.16
66486;BME280;53303;47.476;8.084;2023-06-26T03:34:25;95441.50;;;24.61;43.38
66486;BME280;53303;47.476;8.084;2023-06-26T03:36:50;95444.84;;;24.59;43.67
66486;BME280;53303;47.476;8.084;2023-06-26T03:39:18;95440.31;;;24.56;43.48
66486;BME280;53303;47.476;8.084;2023-06-26T03:41:45;95450.63;;;24.61;43.32
66486;BME280;53303;47.476;8.084;2023-06-26T03:44:11;95452.13;;;24.62;43.64
66486;BME280;53303;47.476;8.084;2023-06-26T03:46:38;95409.44;;;24.41;43.40
66486;BME280;53303;47.476;8.084;2023-06-26T03:49:04;95442.03;;;24.59;43.51
66486;BME280;53303;47.476;8.084;2023-06-26T03:51:29;95437.53;;;24.56;43.50
66486;BME280;53303;47.476;8.084;2023-06-26T03:53:57;95452.34;;;24.64;43.88
66486;BME280;53303;47.476;8.084;2023-06-26T03:56:22;95438.72;;;24.61;43.77
66486;BME280;53303;47.476;8.084;2023-06-26T03:58:48;95443.88;;;24.57;43.49
66486;BME280;53303;47.476;8.084;2023-06-26T04:01:16;95450.22;;;24.57;43.25
66486;BME280;53303;47.476;8.084;2023-06-26T04:03:41;95459.97;;;24.64;43.49
66486;BME280;53303;47.476;8.084;2023-06-26T04:06:06;95467.03;;;24.65;43.94
66486;BME280;53303;47.476;8.084;2023-06-26T04:08:32;95451.47;;;24.56;44.00
66486;BME280;53303;47.476;8.084;2023-06-26T04:11:02;95457.63;;;24.55;43.78
66486;BME280;53303;47.476;8.084;2023-06-26T04:13:30;95464.38;;;24.59;43.34
66486;BME280;53303;47.476;8.084;2023-06-26T04:15:55;95436.56;;;24.40;43.67
66486;BME280;53303;47.476;8.084;2023-06-26T04:18:23;95475.72;;;24.61;43.46
66486;BME280;53303;47.476;8.084;2023-06-26T04:21:10;95473.78;;;24.56;43.42
66486;BME280;53303;47.476;8.084;2023-06-26T04:23:37;95482.09;;;24.62;43.35
66486;BME280;53303;47.476;8.084;2023-06-26T04:26:03;95475.53;;;24.59;43.05
66486;BME280;53303;47.476;8.084;2023-06-26T04:28:32;95484.09;;;24.61;43.07
66486;BME280;53303;47.476;8.084;2023-06-26T04:31:01;95482.16;;;24.56;43.30
66486;BME280;53303;47.476;8.084;2023-06-26T04:33:29;95476.13;;;24.52;43.38
66486;BME280;53303;47.476;8.084;2023-06-26T04:35:54;95478.63;;;24.56;43.25
66486;BME280;53303;47.476;8.084;2023-06-26T04:38:20;95468.31;;;24.50;43.20
66486;BME280;53303;47.476;8.084;2023-06-26T04:40:47;95480.88;;;24.57;43.36
66486;BME280;53303;47.476;8.084;2023-06-26T04:43:15;95470.06;;;24.54;43.54
66486;BME280;53303;47.476;8.084;2023-06-26T04:45:40;95467.78;;;24.52;43.44
66486;BME280;53303;47.476;8.084;2023-06-26T04:48:06;95477.91;;;24.55;43.80
66486;BME280;53303;47.476;8.084;2023-06-26T04:50:31;95473.34;;;24.52;43.79
66486;BME280;53303;47.476;8.084;2023-06-26T04:52:59;95480.88;;;24.57;44.15
66486;BME280;53303;47.476;8.084;2023-06-26T04:55:24;95473.13;;;24.50;44.02
66486;BME280;53303;47.476;8.084;2023-06-26T04:57:50;95475.94;;;24.50;44.57
66486;BME280;53303;47.476;8.084;2023-06-26T05:00:16;95468.22;;;24.43;44.51
66486;BME280;53303;47.476;8.084;2023-06-26T05:02:42;95482.78;;;24.49;44.16
66486;BME280;53303;47.476;8.084;2023-06-26T05:05:07;95470.78;;;24.41;44.65
66486;BME280;53303;47.476;8.084;2023-06-26T05:07:35;95468.94;;;24.43;44.77
66486;BME280;53303;47.476;8.084;2023-06-26T05:10:01;95458.75;;;24.32;44.92
66486;BME280;53303;47.476;8.084;2023-06-26T05:12:26;95471.53;;;24.41;45.04
66486;BME280;53303;47.476;8.084;2023-06-26T05:14:52;95470.78;;;24.41;45.35
66486;BME280;53303;47.476;8.084;2023-06-26T05:17:19;95471.31;;;24.39;45.35
66486;BME280;53303;47.476;8.084;2023-06-26T05:19:48;95468.63;;;24.33;45.62
66486;BME280;53303;47.476;8.084;2023-06-26T05:22:13;95425.59;;;24.02;45.47
66486;BME280;53303;47.476;8.084;2023-06-26T05:24:39;95477.44;;;24.38;45.33
66486;BME280;53303;47.476;8.084;2023-06-26T05:27:05;95476.69;;;24.37;45.47
66486;BME280;53303;47.476;8.084;2023-06-26T05:29:32;95474.97;;;24.34;45.39
66486;BME280;53303;47.476;8.084;2023-06-26T05:31:58;95476.69;;;24.37;45.01
66486;BME280;53303;47.476;8.084;2023-06-26T05:34:24;95479.25;;;24.35;44.58
66486;BME280;53303;47.476;8.084;2023-06-26T05:36:56;95474.44;;;24.36;44.84
66486;BME280;53303;47.476;8.084;2023-06-26T05:39:22;95468.84;;;24.36;44.99
66486;BME280;53303;47.476;8.084;2023-06-26T05:41:48;95466.59;;;24.34;45.13
66486;BME280;53303;47.476;8.084;2023-06-26T05:44:14;95470.66;;;24.33;45.46
66486;BME280;53303;47.476;8.084;2023-06-26T05:46:42;95467.66;;;24.31;45.19
66486;BME280;53303;47.476;8.084;2023-06-26T05:49:07;95466.28;;;24.38;45.12
66486;BME280;53303;47.476;8.084;2023-06-26T05:51:36;95467.34;;;24.35;44.95
66486;BME280;53303;47.476;8.084;2023-06-26T05:54:03;95473.38;;;24.39;45.41
66486;BME280;53303;47.476;8.084;2023-06-26T05:56:30;95467.53;;;24.37;45.31
66486;BME280;53303;47.476;8.084;2023-06-26T05:58:58;95461.53;;;24.32;45.88
66486;BME280;53303;47.476;8.084;2023-06-26T06:01:23;95469.16;;;24.32;46.03
66486;BME280;53303;47.476;8.084;2023-06-26T06:03:49;95462.41;;;24.27;46.30
66486;BME280;53303;47.476;8.084;2023-06-26T06:06:15;95477.09;;;24.41;46.28
66486;BME280;53303;47.476;8.084;2023-06-26T06:08:41;95476.69;;;24.37;46.10
66486;BME280;53303;47.476;8.084;2023-06-26T06:11:06;95479.69;;;24.39;46.05
66486;BME280;53303;47.476;8.084;2023-06-26T06:13:32;95480.63;;;24.42;45.91
66486;BME280;53303;47.476;8.084;2023-06-26T06:15:57;95482.91;;;24.43;46.05
66486;BME280;53303;47.476;8.084;2023-06-26T06:18:23;95484.41;;;24.44;46.71
66486;BME280;53303;47.476;8.084;2023-06-26T06:20:48;95483.88;;;24.46;47.05
66486;BME280;53303;47.476;8.084;2023-06-26T06:23:14;95472.59;;;24.38;46.66
66486;BME280;53303;47.476;8.084;2023-06-26T06:25:39;95477.09;;;24.41;46.17
66486;BME280;53303;47.476;8.084;2023-06-26T06:28:05;95472.06;;;24.40;46.38
66486;BME280;53303;47.476;8.084;2023-06-26T06:30:30;95492.47;;;24.48;46.44
66486;BME280;53303;47.476;8.084;2023-06-26T06:32:56;95484.81;;;24.48;46.25
66486;BME280;53303;47.476;8.084;2023-06-26T06:35:21;95470.47;;;24.44;46.07
66486;BME280;53303;47.476;8.084;2023-06-26T06:37:47;95481.50;;;24.50;46.46
66486;BME280;53303;47.476;8.084;2023-06-26T06:40:12;95478.94;;;24.52;46.45
66486;BME280;53303;47.476;8.084;2023-06-26T06:42:40;95481.72;;;24.52;46.20
66486;BME280;53303;47.476;8.084;2023-06-26T06:45:06;95479.16;;;24.54;46.44
66486;BME280;53303;47.476;8.084;2023-06-26T06:47:33;95469.06;;;24.51;46.94
66486;BME280;53303;47.476;8.084;2023-06-26T06:49:59;95487.22;;;24.58;47.11
66486;BME280;53303;47.476;8.084;2023-06-26T06:52:34;95491.53;;;24.59;47.46
66486;BME280;53303;47.476;8.084;2023-06-26T06:54:59;95483.88;;;24.46;47.86
66486;BME280;53303;47.476;8.084;2023-06-26T06:57:30;95498.59;;;24.60;48.45
66486;BME280;53303;47.476;8.084;2023-06-26T06:59:55;95499.34;;;24.60;48.20
66486;BME280;53303;47.476;8.084;2023-06-26T07:02:21;95501.94;;;24.58;47.46
66486;BME280;53303;47.476;8.084;2023-06-26T07:04:46;95497.84;;;24.59;47.49
66486;BME280;53303;47.476;8.084;2023-06-26T07:07:12;95495.78;;;24.60;47.83
66486;BME280;53303;47.476;8.084;2023-06-26T07:09:43;95497.09;;;24.59;47.72
66486;BME280;53303;47.476;8.084;2023-06-26T07:12:09;95496.19;;;24.50;47.53
66486;BME280;53303;47.476;8.084;2023-06-26T07:14:39;95483.88;;;24.46;47.40
66486;BME280;53303;47.476;8.084;2023-06-26T07:17:04;95508.47;;;24.61;47.60
66486;BME280;53303;47.476;8.084;2023-06-26T07:19:32;95509.00;;;24.59;47.82
66486;BME280;53303;47.476;8.084;2023-06-26T07:22:00;95502.25;;;24.55;47.30
66486;BME280;53303;47.476;8.084;2023-06-26T07:24:27;95497.22;;;24.53;47.69
66486;BME280;53303;47.476;8.084;2023-06-26T07:26:53;95500.22;;;24.55;47.80
66486;BME280;53303;47.476;8.084;2023-06-26T07:29:18;95505.69;;;24.61;47.69
66486;BME280;53303;47.476;8.084;2023-06-26T07:31:47;95503.09;;;24.49;47.60
66486;BME280;53303;47.476;8.084;2023-06-26T07:34:13;95498.16;;;24.56;47.48
66486;BME280;53303;47.476;8.084;2023-06-26T07:36:38;95507.19;;;24.62;47.81
66486;BME280;53303;47.476;8.084;2023-06-26T07:39:04;95504.41;;;24.62;47.78
66486;BME280;53303;47.476;8.084;2023-06-26T07:41:32;95497.41;;;24.55;47.73
66486;BME280;53303;47.476;8.084;2023-06-26T07:43:58;95499.69;;;24.57;47.56
66486;BME280;53303;47.476;8.084;2023-06-26T07:46:23;95505.88;;;24.63;47.72
66486;BME280;53303;47.476;8.084;2023-06-26T07:48:49;95515.78;;;24.64;47.58
66486;BME280;53303;47.476;8.084;2023-06-26T07:51:14;95501.16;;;24.58;47.71
66486;BME280;53303;47.476;8.084;2023-06-26T07:53:40;95501.94;;;24.58;47.40
66486;BME280;53303;47.476;8.084;2023-06-26T07:56:06;95501.94;;;24.58;47.54
66486;BME280;53303;47.476;8.084;2023-06-26T07:58:32;95499.34;;;24.60;47.40
66486;BME280;53303;47.476;8.084;2023-06-26T08:00:59;95507.41;;;24.64;47.65
66486;BME280;53303;47.476;8.084;2023-06-26T08:03:27;95501.94;;;24.58;47.63
66486;BME280;53303;47.476;8.084;2023-06-26T08:05:53;95513.72;;;24.64;47.48
66486;BME280;53303;47.476;8.084;2023-06-26T08:08:20;95511.47;;;24.63;47.44
66486;BME280;53303;47.476;8.084;2023-06-26T08:10:46;95505.88;;;24.63;47.39
66486;BME280;53303;47.476;8.084;2023-06-26T08:13:14;95505.25;;;24.57;47.41
66486;BME280;53303;47.476;8.084;2023-06-26T08:15:44;95497.63;;;24.57;47.54
66486;BME280;53303;47.476;8.084;2023-06-26T08:18:09;95509.66;;;24.65;47.62
66486;BME280;53303;47.476;8.084;2023-06-26T08:20:37;95518.03;;;24.65;47.50
66486;BME280;53303;47.476;8.084;2023-06-26T08:23:03;95505.16;;;24.62;47.84
66486;BME280;53303;47.476;8.084;2023-06-26T08:25:31;95508.34;;;24.66;47.65
66486;BME280;53303;47.476;8.084;2023-06-26T08:27:56;95506.31;;;24.67;47.55
66486;BME280;53303;47.476;8.084;2023-06-26T08:30:22;95511.69;;;24.65;47.99
66486;BME280;53303;47.476;8.084;2023-06-26T08:32:52;95507.06;;;24.67;47.85
66486;BME280;53303;47.476;8.084;2023-06-26T08:35:18;95503.63;;;24.61;47.85
66486;BME280;53303;47.476;8.084;2023-06-26T08:37:43;95506.88;;;24.65;47.67
66486;BME280;53303;47.476;8.084;2023-06-26T08:40:11;95490.00;;;24.58;47.56
66486;BME280;53303;47.476;8.084;2023-06-26T08:42:40;95496.56;;;24.60;47.59
66486;BME280;53303;47.476;8.084;2023-06-26T08:45:06;95492.69;;;24.63;47.44
66486;BME280;53303;47.476;8.084;2023-06-26T08:47:34;95496.44;;;24.66;47.72
66486;BME280;53303;47.476;8.084;2023-06-26T08:52:36;95501.72;;;24.69;47.65
66486;BME280;53303;47.476;8.084;2023-06-26T08:55:06;95498.19;;;24.69;47.98
66486;BME280;53303;47.476;8.084;2023-06-26T08:57:34;95491.81;;;24.68;47.75
66486;BME280;53303;47.476;8.084;2023-06-26T09:00:00;95496.13;;;24.69;47.76
66486;BME280;53303;47.476;8.084;2023-06-26T09:02:28;95505.03;;;24.68;47.60
66486;BME280;53303;47.476;8.084;2023-06-26T09:04:54;95500.19;;;24.68;47.95
66486;BME280;53303;47.476;8.084;2023-06-26T09:07:19;95481.97;;;24.54;47.94
66486;BME280;53303;47.476;8.084;2023-06-26T09:09:45;95501.50;;;24.67;47.91
66486;BME280;53303;47.476;8.084;2023-06-26T09:12:11;95506.53;;;24.69;47.68
66486;BME280;53303;47.476;8.084;2023-06-26T09:14:37;95503.75;;;24.69;47.49
66486;BME280;53303;47.476;8.084;2023-06-26T09:17:03;95502.03;;;24.66;47.86
66486;BME280;53303;47.476;8.084;2023-06-26T09:19:28;95503.75;;;24.69;48.02
66486;BME280;53303;47.476;8.084;2023-06-26T09:21:54;95506.53;;;24.69;47.67
66486;BME280;53303;47.476;8.084;2023-06-26T09:24:21;95513.63;;;24.70;48.04
66486;BME280;53303;47.476;8.084;2023-06-26T09:26:48;95511.56;;;24.70;48.03
66486;BME280;53303;47.476;8.084;2023-06-26T09:29:15;95512.88;;;24.69;47.98
66486;BME280;53303;47.476;8.084;2023-06-26T09:31:40;95515.13;;;24.71;48.07
66486;BME280;53303;47.476;8.084;2023-06-26T09:34:06;95509.53;;;24.71;47.65
66486;BME280;53303;47.476;8.084;2023-06-26T09:36:32;95519.41;;;24.72;48.12
66486;BME280;53303;47.476;8.084;2023-06-26T09:39:02;95506.75;;;24.71;47.72
66486;BME280;53303;47.476;8.084;2023-06-26T09:41:28;95504.28;;;24.67;48.05
66486;BME280;53303;47.476;8.084;2023-06-26T09:43:53;95505.78;;;24.68;48.02
66486;BME280;53303;47.476;8.084;2023-06-26T09:46:27;95503.97;;;24.71;48.19
66486;BME280;53303;47.476;8.084;2023-06-26T09:49:13;95509.88;;;24.67;47.83
66486;BME280;53303;47.476;8.084;2023-06-26T09:51:42;95507.50;;;24.72;47.92
66486;BME280;53303;47.476;8.084;2023-06-26T09:54:08;95507.72;;;24.74;48.05
66486;BME280;53303;47.476;8.084;2023-06-26T09:56:36;95504.72;;;24.72;47.72
66486;BME280;53303;47.476;8.084;2023-06-26T09:59:04;95506.22;;;24.73;48.18
66486;BME280;53303;47.476;8.084;2023-06-26T10:01:33;95495.38;;;24.69;47.95
66486;BME280;53303;47.476;8.084;2023-06-26T10:03:58;95492.34;;;24.67;48.02
66486;BME280;53303;47.476;8.084;2023-06-26T10:06:31;95507.72;;;24.74;47.92
66486;BME280;53303;47.476;8.084;2023-06-26T10:09:04;95507.72;;;24.74;48.20
66486;BME280;53303;47.476;8.084;2023-06-26T10:14:15;95510.50;;;24.74;48.19
66486;BME280;53303;47.476;8.084;2023-06-26T10:16:42;95506.88;;;24.65;47.98
66486;BME280;53303;47.476;8.084;2023-06-26T10:19:11;95499.16;;;24.58;47.97
66486;BME280;53303;47.476;8.084;2023-06-26T10:21:39;95514.91;;;24.69;48.07
66486;BME280;53303;47.476;8.084;2023-06-26T10:24:08;95523.16;;;24.75;48.09
66486;BME280;53303;47.476;8.084;2023-06-26T10:26:42;95522.97;;;24.73;48.43
66486;BME280;53303;47.476;8.084;2023-06-26T10:29:10;95522.41;;;24.74;48.00
66486;BME280;53303;47.476;8.084;2023-06-26T10:31:37;95522.97;;;24.73;48.08
66486;BME280;53303;47.476;8.084;2023-06-26T10:34:05;95524.25;;;24.72;48.14
66486;BME280;53303;47.476;8.084;2023-06-26T10:36:31;95531.09;;;24.70;48.02
66486;BME280;53303;47.476;8.084;2023-06-26T10:38:59;95531.75;;;24.77;47.98
66486;BME280;53303;47.476;8.084;2023-06-26T10:41:36;95530.25;;;24.76;48.26
66486;BME280;53303;47.476;8.084;2023-06-26T10:46:27;95540.88;;;24.77;48.46
66486;BME280;53303;47.476;8.084;2023-06-26T10:48:59;95532.59;;;24.72;48.42
66486;BME280;53303;47.476;8.084;2023-06-26T10:51:28;95536.06;;;24.78;48.16
66486;BME280;53303;47.476;8.084;2023-06-26T10:53:57;95543.13;;;24.79;48.04
66486;BME280;53303;47.476;8.084;2023-06-26T10:56:47;95551.06;;;24.75;48.44
66486;BME280;53303;47.476;8.084;2023-06-26T10:59:18;95546.66;;;24.79;48.46
66486;BME280;53303;47.476;8.084;2023-06-26T11:01:46;95535.06;;;24.75;48.37
66486;BME280;53303;47.476;8.084;2023-06-26T11:04:13;95543.34;;;24.81;48.39
66486;BME280;53303;47.476;8.084;2023-06-26T11:06:43;95548.91;;;24.81;48.10
66486;BME280;53303;47.476;8.084;2023-06-26T11:09:13;95555.28;;;24.81;48.33
66486;BME280;53303;47.476;8.084;2023-06-26T11:14:27;95561.59;;;24.82;48.15
66486;BME280;53303;47.476;8.084;2023-06-26T11:16:57;95564.38;;;24.82;48.40
66486;BME280;53303;47.476;8.084;2023-06-26T11:19:25;95566.44;;;24.81;48.35
66486;BME280;53303;47.476;8.084;2023-06-26T11:21:52;95565.88;;;24.83;48.50
66486;BME280;53303;47.476;8.084;2023-06-26T11:24:19;95562.88;;;24.81;48.01
66486;BME280;53303;47.476;8.084;2023-06-26T11:26:45;95560.28;;;24.83;48.50
66486;BME280;53303;47.476;8.084;2023-06-26T11:29:12;95569.44;;;24.83;48.07
66486;BME280;53303;47.476;8.084;2023-06-26T11:31:39;95570.19;;;24.84;48.26
66486;BME280;53303;47.476;8.084;2023-06-26T11:34:06;95563.31;;;24.85;48.45
66486;BME280;53303;47.476;8.084;2023-06-26T11:36:41;95569.66;;;24.85;48.43
66486;BME280;53303;47.476;8.084;2023-06-26T11:39:08;95579.28;;;24.84;48.49
66486;BME280;53303;47.476;8.084;2023-06-26T11:41:37;95577.03;;;24.83;48.34
66486;BME280;53303;47.476;8.084;2023-06-26T11:44:05;95568.91;;;24.85;48.27
66486;BME280;53303;47.476;8.084;2023-06-26T11:46:31;95580.06;;;24.85;48.27
66486;BME280;53303;47.476;8.084;2023-06-26T11:48:59;95573.72;;;24.84;48.05
66486;BME280;53303;47.476;8.084;2023-06-26T11:51:27;95574.03;;;24.81;48.27
66486;BME280;53303;47.476;8.084;2023-06-26T11:53:53;95571.91;;;24.87;48.53
66486;BME280;53303;47.476;8.084;2023-06-26T11:56:19;95577.47;;;24.87;48.46
66486;BME280;53303;47.476;8.084;2023-06-26T12:01:23;95576.72;;;24.86;48.11
66486;BME280;53303;47.476;8.084;2023-06-26T12:03:50;95573.38;;;24.88;48.55
66486;BME280;53303;47.476;8.084;2023-06-26T12:06:16;95567.81;;;24.88;48.22
66486;BME280;53303;47.476;8.084;2023-06-26T12:08:42;95569.31;;;24.89;48.34
66486;BME280;53303;47.476;8.084;2023-06-26T12:11:08;95559.44;;;24.88;48.34
66486;BME280;53303;47.476;8.084;2023-06-26T12:13:34;95567.06;;;24.87;48.30
66486;BME280;53303;47.476;8.084;2023-06-26T12:15:59;95562.75;;;24.86;48.24
66486;BME280;53303;47.476;8.084;2023-06-26T12:18:25;95544.19;;;24.76;48.20
66486;BME280;53303;47.476;8.084;2023-06-26T12:20:53;95565.22;;;24.90;48.38
66486;BME280;53303;47.476;8.084;2023-06-26T12:23:18;95558.38;;;24.91;48.59
66486;BME280;53303;47.476;8.084;2023-06-26T12:25:46;95554.06;;;24.90;48.57
66486;BME280;53303;47.476;8.084;2023-06-26T12:28:18;95559.88;;;24.92;48.10
66486;BME280;53303;47.476;8.084;2023-06-26T12:30:47;95553.84;;;24.88;48.44
66486;BME280;53303;47.476;8.084;2023-06-26T12:33:33;95560.94;;;24.89;48.34
66486;BME280;53303;47.476;8.084;2023-06-26T12:35:58;95562.66;;;24.92;48.45
66486;BME280;53303;47.476;8.084;2023-06-26T12:38:23;95561.47;;;24.87;48.26
66486;BME280;53303;47.476;8.084;2023-06-26T12:40:57;95552.38;;;24.87;48.48
66486;BME280;53303;47.476;8.084;2023-06-26T12:43:23;95570.47;;;24.94;48.58
66486;BME280;53303;47.476;8.084;2023-06-26T12:45:54;95562.22;;;24.88;48.42
66486;BME280;53303;47.476;8.084;2023-06-26T12:48:20;95562.09;;;24.94;48.12
66486;BME280;53303;47.476;8.084;2023-06-26T12:50:45;95556.00;;;24.95;48.56
66486;BME280;53303;47.476;8.084;2023-06-26T12:53:11;95561.56;;;24.95;48.15
66486;BME280;53303;47.476;8.084;2023-06-26T12:55:36;95560.28;;;24.96;48.41
66486;BME280;53303;47.476;8.084;2023-06-26T12:58:02;95551.94;;;24.96;47.96
66486;BME280;53303;47.476;8.084;2023-06-26T13:00:27;95567.16;;;24.95;48.25
66486;BME280;53303;47.476;8.084;2023-06-26T13:02:53;95559.56;;;24.96;48.09
66486;BME280;53303;47.476;8.084;2023-06-26T13:05:19;95554.94;;;24.98;48.37
66486;BME280;53303;47.476;8.084;2023-06-26T13:07:44;95540.03;;;24.96;48.33
66486;BME280;53303;47.476;8.084;2023-06-26T13:10:10;95543.34;;;24.94;48.26
66486;BME280;53303;47.476;8.084;2023-06-26T13:12:35;95537.97;;;24.83;48.59
66486;BME280;53303;47.476;8.084;2023-06-26T13:15:03;95537.56;;;24.92;48.27
66486;BME280;53303;47.476;8.084;2023-06-26T13:17:33;95554.38;;;25.00;48.62
66486;BME280;53303;47.476;8.084;2023-06-26T13:19:58;95535.91;;;24.97;48.46